Time;durP1;ratioP1;P1;durP2;ratioP2;P2;SDS_P1;SDS_P2;PMS_P1;PMS_P2;Temp;Humidity;BMP_temperature;BMP_pressure;BME280_temperature;BME280_humidity;BME280_pressure;Samples;Min_cycle;Max_cycle;Signal;HPM_P1;HPM_P2
2022/05/07 00:00:31;;;;;;;;;;;;;;;;;;4700122;30;20017;-85
2022/05/07 00:02:58;;;;;;;;;;;;;;;;;;4716163;30;20371;-86
2022/05/07 00:05:24;;;;;;;;;;;;;;;;;;4712112;30;19976;-85
2022/05/07 00:07:51;;;;;;;;;;;;;;;;;;4719082;30;20607;-85
2022/05/07 00:10:16;;;;;;;;;;;;;;;;;;4696367;30;19930;-85
2022/05/07 00:12:42;;;;;;;;;;;;;;;;;;4701518;30;19942;-85
2022/05/07 00:15:08;;;;;;;;;;;;;;;;;;4698287;30;19931;-85
2022/05/07 00:20:19;;;;;;;;;;;;;;;;;;4706304;30;19941;-83
2022/05/07 00:22:46;;;;;;;;;;;;;;;;;;4707311;30;19934;-83
2022/05/07 00:25:12;;;;;;;;;;;;;;;;;;4728017;30;19934;-83
2022/05/07 00:27:39;;;;;;;;;;;;;;;;;;4698367;30;19930;-83
2022/05/07 00:30:06;;;;;;;;;;;;;;;;;;4708496;30;19941;-83
2022/05/07 00:32:33;;;;;;;;;;;;;;;;;;4706995;30;20406;-83
2022/05/07 00:34:59;;;;;;;;;;;;;;;;;;4709601;30;19995;-83
2022/05/07 00:37:26;;;;;;;;;;;;;;;;;;4710336;30;19930;-83
2022/05/07 00:39:52;;;;;;;;;;;;;;;;;;4714995;30;20017;-83
2022/05/07 00:42:22;;;;;;;;;;;;;;;;;;4726280;30;19932;-83
2022/05/07 00:44:48;;;;;;;;;;;;;;;;;;4701051;30;19966;-83
2022/05/07 00:47:15;;;;;;;;;;;;;;;;;;4721927;30;20010;-83
2022/05/07 00:49:41;;;;;;;;;;;;;;;;;;4722702;30;19930;-83
2022/05/07 00:52:07;;;;;;;;;;;;;;;;;;4710846;30;19930;-83
2022/05/07 00:54:34;;;;;;;;;;;;;;;;;;4717387;30;20129;-83
2022/05/07 00:57:00;;;;;;;;;;;;;;;;;;4725743;30;19930;-83
2022/05/07 00:59:26;;;;;;;;;;;;;;;;;;4689823;30;20015;-83
2022/05/07 01:01:53;;;;;;;;;;;;;;;;;;4689970;30;19934;-83
2022/05/07 01:04:19;;;;;;;;;;;;;;;;;;4673827;30;19935;-83
2022/05/07 01:06:44;;;;;;;;;;;;;;;;;;4681015;30;20434;-83
2022/05/07 01:09:10;;;;;;;;;;;;;;;;;;4688826;30;19984;-83
2022/05/07 01:11:36;;;;;;;;;;;;;;;;;;4700285;30;19992;-83
2022/05/07 01:14:02;;;;;;;;;;;;;;;;;;4705679;30;19930;-83
2022/05/07 01:16:28;;;;;;;;;;;;;;;;;;4707102;30;19941;-83
2022/05/07 01:18:54;;;;;;;;;;;;;;;;;;4690321;30;19926;-83
2022/05/07 01:21:20;;;;;;;;;;;;;;;;;;4692294;30;20579;-83
2022/05/07 01:23:47;;;;;;;;;;;;;;;;;;4709878;30;22446;-83
2022/05/07 01:26:13;;;;;;;;;;;;;;;;;;4690121;30;20027;-83
2022/05/07 01:28:40;;;;;;;;;;;;;;;;;;4708970;30;19930;-83
2022/05/07 01:31:06;;;;;;;;;;;;;;;;;;4702973;30;19926;-83
2022/05/07 01:33:33;;;;;;;;;;;;;;;;;;4717163;30;19931;-83
2022/05/07 01:35:59;;;;;;;;;;;;;;;;;;4714083;30;19977;-83
2022/05/07 01:38:26;;;;;;;;;;;;;;;;;;4723813;30;19930;-83
2022/05/07 01:40:53;;;;;;;;;;;;;;;;;;4715013;30;20004;-83
2022/05/07 01:43:20;;;;;;;;;;;;;;;;;;4709542;30;20301;-83
2022/05/07 01:45:46;;;;;;;;;;;;;;;;;;4702173;30;19934;-83
2022/05/07 01:48:13;;;;;;;;;;;;;;;;;;4713914;30;19926;-83
2022/05/07 01:50:40;;;;;;;;;;;;;;;;;;4698523;30;19976;-83
2022/05/07 01:53:07;;;;;;;;;;;;;;;;;;4714369;30;20016;-83
2022/05/07 01:55:33;;;;;;;;;;;;;;;;;;4702896;30;19939;-83
2022/05/07 01:57:59;;;;;;;;;;;;;;;;;;4718989;30;19937;-83
2022/05/07 02:00:25;;;;;;;;;;;;;;;;;;4734727;30;20020;-83
2022/05/07 02:02:51;;;;;;;;;;;;;;;;;;4716104;30;19942;-83
2022/05/07 02:05:17;;;;;;;;;;;;;;;;;;4708277;30;19926;-83
2022/05/07 02:07:44;;;;;;;;;;;;;;;;;;4717183;30;19930;-83
2022/05/07 02:10:10;;;;;;;;;;;;;;;;;;4708448;30;20052;-83
2022/05/07 02:12:36;;;;;;;;;;;;;;;;;;4728299;30;19937;-83
2022/05/07 02:15:02;;;;;;;;;;;;;;;;;;4704106;30;19977;-83
2022/05/07 02:17:28;;;;;;;;;;;;;;;;;;4713098;30;20351;-83
2022/05/07 02:19:54;;;;;;;;;;;;;;;;;;4712408;30;19934;-83
2022/05/07 02:22:20;;;;;;;;;;;;;;;;;;4711653;30;19934;-83
2022/05/07 02:24:46;;;;;;;;;;;;;;;;;;4715835;30;19968;-83
2022/05/07 02:27:14;;;;;;;;;;;;;;;;;;4697312;30;20382;-82
2022/05/07 02:29:39;;;;;;;;;;;;;;;;;;4712823;30;19999;-83
2022/05/07 02:32:07;;;;;;;;;;;;;;;;;;4715379;30;20691;-83
2022/05/07 02:34:33;;;;;;;;;;;;;;;;;;4711585;30;19937;-83
2022/05/07 02:36:59;;;;;;;;;;;;;;;;;;4714893;30;19931;-83
2022/05/07 02:39:24;;;;;;;;;;;;;;;;;;4719594;30;19931;-83
2022/05/07 02:44:41;;;;;;;;;;;;;;;;;;4725576;30;20437;-83
2022/05/07 02:47:08;;;;;;;;;;;;;;;;;;4704193;30;19934;-83
2022/05/07 02:49:34;;;;;;;;;;;;;;;;;;4710556;30;19965;-83
2022/05/07 02:52:00;;;;;;;;;;;;;;;;;;4699038;30;21097;-83
2022/05/07 02:54:27;;;;;;;;;;;;;;;;;;4704655;30;20319;-83
2022/05/07 02:56:53;;;;;;;;;;;;;;;;;;4725663;29;20025;-83
2022/05/07 02:59:19;;;;;;;;;;;;;;;;;;4695073;30;20379;-83
2022/05/07 03:01:45;;;;;;;;;;;;;;;;;;4724391;30;19987;-82
2022/05/07 03:04:13;;;;;;;;;;;;;;;;;;4726325;30;20028;-83
2022/05/07 03:06:39;;;;;;;;;;;;;;;;;;4724756;30;20055;-83
2022/05/07 03:09:06;;;;;;;;;;;;;;;;;;4717698;30;20020;-83
2022/05/07 03:11:35;;;;;;;;;;;;;;;;;;4723872;30;19934;-83
2022/05/07 03:14:02;;;;;;;;;;;;;;;;;;4702182;30;20032;-83
2022/05/07 03:16:28;;;;;;;;;;;;;;;;;;4696151;30;20264;-83
2022/05/07 03:18:55;;;;;;;;;;;;;;;;;;4710414;30;19989;-83
2022/05/07 03:21:21;;;;;;;;;;;;;;;;;;4707800;30;19944;-83
2022/05/07 03:23:47;;;;;;;;;;;;;;;;;;4725988;30;19938;-83
2022/05/07 03:26:13;;;;;;;;;;;;;;;;;;4728643;30;20009;-83
2022/05/07 03:28:39;;;;;;;;;;;;;;;;;;4725020;30;19984;-83
2022/05/07 03:31:05;;;;;;;;;;;;;;;;;;4703504;30;19937;-83
2022/05/07 03:33:31;;;;;;;;;;;;;;;;;;4719945;30;19930;-83
2022/05/07 03:35:57;;;;;;;;;;;;;;;;;;4713662;30;20307;-83
2022/05/07 03:38:23;;;;;;;;;;;;;;;;;;4722340;30;19934;-83
2022/05/07 03:40:49;;;;;;;;;;;;;;;;;;4724684;30;20303;-83
2022/05/07 03:43:21;;;;;;;;;;;;;;;;;;4720357;30;19934;-82
2022/05/07 03:45:47;;;;;;;;;;;;;;;;;;4721857;30;19988;-83
2022/05/07 03:48:13;;;;;;;;;;;;;;;;;;4720584;30;19937;-83
2022/05/07 03:50:39;;;;;;;;;;;;;;;;;;4727347;30;20390;-82
2022/05/07 03:55:50;;;;;;;;;;;;;;;;;;4709396;30;20010;-83
2022/05/07 03:58:17;;;;;;;;;;;;;;;;;;4703704;30;20351;-83
2022/05/07 04:00:43;;;;;;;;;;;;;;;;;;4708756;30;19937;-83
2022/05/07 04:03:10;;;;;;;;;;;;;;;;;;4715601;30;19935;-83
2022/05/07 04:05:37;;;;;;;;;;;;;;;;;;4718362;30;19934;-83
2022/05/07 04:08:03;;;;;;;;;;;;;;;;;;4721259;30;19930;-83
2022/05/07 04:10:29;;;;;;;;;;;;;;;;;;4711576;30;19937;-83
2022/05/07 04:12:54;;;;;;;;;;;;;;;;;;4712893;30;19980;-83
2022/05/07 04:15:20;;;;;;;;;;;;;;;;;;4692629;30;20380;-83
2022/05/07 04:17:46;;;;;;;;;;;;;;;;;;4710774;30;19934;-83
2022/05/07 04:20:12;;;;;;;;;;;;;;;;;;4723426;30;20485;-83
2022/05/07 04:22:38;;;;;;;;;;;;;;;;;;4709176;30;19950;-83
2022/05/07 04:25:04;;;;;;;;;;;;;;;;;;4692736;30;19938;-83
2022/05/07 04:27:30;;;;;;;;;;;;;;;;;;4711429;30;19973;-83
2022/05/07 04:29:57;;;;;;;;;;;;;;;;;;4726172;30;19935;-83
2022/05/07 04:32:24;;;;;;;;;;;;;;;;;;4709781;30;19934;-83
2022/05/07 04:34:49;;;;;;;;;;;;;;;;;;4710247;30;19930;-83
2022/05/07 04:37:15;;;;;;;;;;;;;;;;;;4691365;30;19926;-83
2022/05/07 04:39:41;;;;;;;;;;;;;;;;;;4711385;30;19934;-83
2022/05/07 04:42:07;;;;;;;;;;;;;;;;;;4709515;30;19934;-83
2022/05/07 04:44:33;;;;;;;;;;;;;;;;;;4710564;30;19934;-83
2022/05/07 04:47:00;;;;;;;;;;;;;;;;;;4714068;30;19936;-83
2022/05/07 04:49:28;;;;;;;;;;;;;;;;;;4709204;30;20385;-83
2022/05/07 04:51:53;;;;;;;;;;;;;;;;;;4694735;30;19987;-83
2022/05/07 04:54:21;;;;;;;;;;;;;;;;;;4695334;30;19934;-83
2022/05/07 04:56:46;;;;;;;;;;;;;;;;;;4722881;30;20420;-83
2022/05/07 04:59:12;;;;;;;;;;;;;;;;;;4710910;30;19927;-83
2022/05/07 05:01:38;;;;;;;;;;;;;;;;;;4698461;30;19942;-82
2022/05/07 05:04:04;;;;;;;;;;;;;;;;;;4702178;30;20326;-83
2022/05/07 05:06:31;;;;;;;;;;;;;;;;;;4710794;30;20009;-82
2022/05/07 05:08:57;;;;;;;;;;;;;;;;;;4727082;30;20310;-83
2022/05/07 05:11:23;;;;;;;;;;;;;;;;;;4738036;30;19934;-83
2022/05/07 05:13:49;;;;;;;;;;;;;;;;;;4699736;30;19991;-83
2022/05/07 05:16:15;;;;;;;;;;;;;;;;;;4696432;30;20486;-83
2022/05/07 05:18:41;;;;;;;;;;;;;;;;;;4713209;30;20294;-83
2022/05/07 05:21:07;;;;;;;;;;;;;;;;;;4722629;30;20017;-83
2022/05/07 05:23:34;;;;;;;;;;;;;;;;;;4712821;30;19930;-83
2022/05/07 05:26:00;;;;;;;;;;;;;;;;;;4724004;30;20287;-83
2022/05/07 05:28:27;;;;;;;;;;;;;;;;;;4696800;30;19926;-83
2022/05/07 05:30:53;;;;;;;;;;;;;;;;;;4712841;30;19930;-82
2022/05/07 05:33:19;;;;;;;;;;;;;;;;;;4706414;30;20895;-83
2022/05/07 05:35:45;;;;;;;;;;;;;;;;;;4710280;30;19944;-82
2022/05/07 05:38:12;;;;;;;;;;;;;;;;;;4704586;30;20013;-83
2022/05/07 05:40:41;;;;;;;;;;;;;;;;;;4726449;30;19973;-83
2022/05/07 05:43:08;;;;;;;;;;;;;;;;;;4721174;30;19982;-83
2022/05/07 05:45:34;;;;;;;;;;;;;;;;;;4722284;30;20505;-83
2022/05/07 05:48:01;;;;;;;;;;;;;;;;;;4725828;30;19930;-83
2022/05/07 05:50:30;;;;;;;;;;;;;;;;;;4696177;30;19941;-83
2022/05/07 05:52:56;;;;;;;;;;;;;;;;;;4725903;30;19941;-83
2022/05/07 05:55:22;;;;;;;;;;;;;;;;;;4705948;30;22411;-83
2022/05/07 05:57:50;;;;;;;;;;;;;;;;;;4729086;30;20448;-83
2022/05/07 06:00:16;;;;;;;;;;;;;;;;;;4705213;30;19946;-83
2022/05/07 06:02:47;;;;;;;;;;;;;;;;;;4710538;30;19930;-83
2022/05/07 06:05:17;;;;;;;;;;;;;;;;;;4725612;30;20015;-83
2022/05/07 06:07:44;;;;;;;;;;;;;;;;;;4713643;30;19976;-83
2022/05/07 06:10:11;;;;;;;;;;;;;;;;;;4704185;30;20033;-83
2022/05/07 06:12:37;;;;;;;;;;;;;;;;;;4727352;30;19948;-83
2022/05/07 06:15:05;;;;;;;;;;;;;;;;;;4720854;30;20403;-83
2022/05/07 06:17:46;;;;;;;;;;;;;;;;;;4672636;30;20476;-83
2022/05/07 06:20:18;;;;;;;;;;;;;;;;;;4669948;30;20301;-83
2022/05/07 06:22:44;;;;;;;;;;;;;;;;;;4668895;30;19931;-83
2022/05/07 06:28:01;;;;;;;;;;;;;;;;;;4657294;30;19939;-82
2022/05/07 06:30:27;;;;;;;;;;;;;;;;;;4643021;30;20469;-83
2022/05/07 06:32:53;;;;;;;;;;;;;;;;;;4625915;30;19928;-83
2022/05/07 06:35:19;;;;;;;;;;;;;;;;;;4633070;30;19942;-83
2022/05/07 06:37:48;;;;;;;;;;;;;;;;;;4657750;30;20014;-83
2022/05/07 06:40:18;;;;;;;;;;;;;;;;;;4641398;30;19928;-83
2022/05/07 06:42:46;;;;;;;;;;;;;;;;;;4643583;30;20230;-83
2022/05/07 06:45:16;;;;;;;;;;;;;;;;;;4637181;30;20316;-83
2022/05/07 06:47:42;;;;;;;;;;;;;;;;;;4645413;30;19985;-83
2022/05/07 06:50:09;;;;;;;;;;;;;;;;;;4678198;30;20392;-83
2022/05/07 06:52:35;;;;;;;;;;;;;;;;;;4678986;30;19926;-83
2022/05/07 06:55:04;;;;;;;;;;;;;;;;;;4671570;30;20068;-83
2022/05/07 06:57:30;;;;;;;;;;;;;;;;;;4663448;30;20022;-83
2022/05/07 06:59:57;;;;;;;;;;;;;;;;;;4675919;30;19926;-83
2022/05/07 07:02:23;;;;;;;;;;;;;;;;;;4657378;30;20034;-83
2022/05/07 07:04:49;;;;;;;;;;;;;;;;;;4665771;30;20352;-84
2022/05/07 07:07:16;;;;;;;;;;;;;;;;;;4682297;30;20310;-83
2022/05/07 07:09:42;;;;;;;;;;;;;;;;;;4695759;30;20383;-83
2022/05/07 07:12:10;;;;;;;;;;;;;;;;;;4714211;30;19930;-84
2022/05/07 07:14:36;;;;;;;;;;;;;;;;;;4712554;30;20297;-83
2022/05/07 07:17:02;;;;;;;;;;;;;;;;;;4690895;30;19939;-84
2022/05/07 07:19:28;;;;;;;;;;;;;;;;;;4712600;30;20386;-83
2022/05/07 07:21:54;;;;;;;;;;;;;;;;;;4714197;30;19935;-84
2022/05/07 07:24:22;;;;;;;;;;;;;;;;;;4707553;30;22524;-84
2022/05/07 07:26:50;;;;;;;;;;;;;;;;;;4725649;30;21587;-84
2022/05/07 07:29:17;;;;;;;;;;;;;;;;;;4714106;30;19930;-83
2022/05/07 07:31:43;;;;;;;;;;;;;;;;;;4728330;30;19938;-83
2022/05/07 07:34:09;;;;;;;;;;;;;;;;;;4704575;30;19934;-84
2022/05/07 07:36:35;;;;;;;;;;;;;;;;;;4713115;30;20081;-84
2022/05/07 07:39:06;;;;;;;;;;;;;;;;;;4723756;30;20290;-83
2022/05/07 07:41:34;;;;;;;;;;;;;;;;;;4710424;30;19931;-84
2022/05/07 07:44:00;;;;;;;;;;;;;;;;;;4697358;30;19945;-83
2022/05/07 07:49:13;;;;;;;;;;;;;;;;;;4713137;30;19936;-83
2022/05/07 07:51:39;;;;;;;;;;;;;;;;;;4719943;30;19927;-83
2022/05/07 07:54:05;;;;;;;;;;;;;;;;;;4700005;30;20419;-83
2022/05/07 07:56:31;;;;;;;;;;;;;;;;;;4722302;30;20017;-83
2022/05/07 07:58:57;;;;;;;;;;;;;;;;;;4690889;30;19926;-83
2022/05/07 08:01:22;;;;;;;;;;;;;;;;;;4708824;30;19934;-83
2022/05/07 08:03:48;;;;;;;;;;;;;;;;;;4708882;30;19930;-83
2022/05/07 08:06:14;;;;;;;;;;;;;;;;;;4701577;30;19986;-84
2022/05/07 08:11:40;;;;;;;;;;;;;;;;;;4702251;30;19930;-84
2022/05/07 08:14:09;;;;;;;;;;;;;;;;;;4710543;30;20069;-83
2022/05/07 08:16:35;;;;;;;;;;;;;;;;;;4713152;30;19940;-83
2022/05/07 08:19:03;;;;;;;;;;;;;;;;;;4708380;30;19938;-83
2022/05/07 08:21:29;;;;;;;;;;;;;;;;;;4699745;30;19934;-84
2022/05/07 08:23:55;;;;;;;;;;;;;;;;;;4705897;30;19930;-84
2022/05/07 08:26:21;;;;;;;;;;;;;;;;;;4722372;30;19934;-83
2022/05/07 08:28:47;;;;;;;;;;;;;;;;;;4713920;30;19941;-84
2022/05/07 08:31:14;;;;;;;;;;;;;;;;;;4712387;30;19927;-84
2022/05/07 08:33:43;;;;;;;;;;;;;;;;;;4698523;30;19962;-83
2022/05/07 08:36:10;;;;;;;;;;;;;;;;;;4723959;30;20428;-83
2022/05/07 08:38:36;;;;;;;;;;;;;;;;;;4728142;30;19930;-84
2022/05/07 08:41:02;;;;;;;;;;;;;;;;;;4732349;30;19958;-83
2022/05/07 08:43:28;;;;;;;;;;;;;;;;;;4696005;30;20075;-84
2022/05/07 08:45:54;;;;;;;;;;;;;;;;;;4717529;30;20339;-84
2022/05/07 08:48:23;;;;;;;;;;;;;;;;;;4689037;30;19934;-83
2022/05/07 08:50:49;;;;;;;;;;;;;;;;;;4713378;30;19942;-83
2022/05/07 08:53:15;;;;;;;;;;;;;;;;;;4704169;30;19985;-84
2022/05/07 08:55:43;;;;;;;;;;;;;;;;;;4721769;30;19930;-83
2022/05/07 08:58:10;;;;;;;;;;;;;;;;;;4699569;30;19942;-83
2022/05/07 09:00:38;;;;;;;;;;;;;;;;;;4715689;30;19941;-83
2022/05/07 09:03:04;;;;;;;;;;;;;;;;;;4707480;30;19927;-83
2022/05/07 09:05:29;;;;;;;;;;;;;;;;;;4716544;30;19936;-83
2022/05/07 09:07:57;;;;;;;;;;;;;;;;;;4706428;30;20017;-83
2022/05/07 09:10:26;;;;;;;;;;;;;;;;;;4715254;30;19934;-83
2022/05/07 09:12:56;;;;;;;;;;;;;;;;;;4720559;30;19930;-83
2022/05/07 09:15:22;;;;;;;;;;;;;;;;;;4716331;30;19938;-83
2022/05/07 09:17:49;;;;;;;;;;;;;;;;;;4715669;30;19926;-83
2022/05/07 09:20:16;;;;;;;;;;;;;;;;;;4725001;30;20032;-83
2022/05/07 09:22:43;;;;;;;;;;;;;;;;;;4736156;30;19930;-83
2022/05/07 09:25:13;;;;;;;;;;;;;;;;;;4729009;30;19994;-83
2022/05/07 09:27:39;;;;;;;;;;;;;;;;;;4721384;30;19926;-83
2022/05/07 09:30:07;;;;;;;;;;;;;;;;;;4729367;30;19933;-83
2022/05/07 09:32:34;;;;;;;;;;;;;;;;;;4721539;30;19983;-83
2022/05/07 09:37:46;;;;;;;;;;;;;;;;;;4738906;30;20303;-83
2022/05/07 09:40:13;;;;;;;;;;;;;;;;;;4734220;30;19930;-83
2022/05/07 09:42:42;;;;;;;;;;;;;;;;;;4713908;30;20306;-84
2022/05/07 09:45:09;;;;;;;;;;;;;;;;;;4726457;30;19987;-84
2022/05/07 09:47:35;;;;;;;;;;;;;;;;;;4732109;30;19942;-83
2022/05/07 09:58:21;;;;;;;;;;;;;;;;;;4723118;30;19988;-83
2022/05/07 10:00:47;;;;;;;;;;;;;;;;;;4719063;30;19930;-83
2022/05/07 10:03:13;;;;;;;;;;;;;;;;;;4706197;30;19926;-83
2022/05/07 10:05:39;;;;;;;;;;;;;;;;;;4714293;30;20067;-82
2022/05/07 10:08:09;;;;;;;;;;;;;;;;;;4728485;30;19926;-83
2022/05/07 10:10:38;;;;;;;;;;;;;;;;;;4728057;30;19935;-83
2022/05/07 10:13:08;;;;;;;;;;;;;;;;;;4714994;30;20587;-84
2022/05/07 10:15:36;;;;;;;;;;;;;;;;;;4721523;30;20194;-84
2022/05/07 10:18:02;;;;;;;;;;;;;;;;;;4724165;30;19988;-83
2022/05/07 10:20:29;;;;;;;;;;;;;;;;;;4691399;30;19934;-83
2022/05/07 10:22:56;;;;;;;;;;;;;;;;;;4708452;30;20394;-83
2022/05/07 10:25:22;;;;;;;;;;;;;;;;;;4565981;30;4386365;-83
2022/05/07 10:27:49;;;;;;;;;;;;;;;;;;4708614;30;19930;-83
2022/05/07 10:30:17;;;;;;;;;;;;;;;;;;4693722;30;20398;-83
2022/05/07 10:32:43;;;;;;;;;;;;;;;;;;4699045;30;19931;-83
2022/05/07 10:35:10;;;;;;;;;;;;;;;;;;4679296;30;19977;-83
2022/05/07 10:37:36;;;;;;;;;;;;;;;;;;4719496;30;20305;-83
2022/05/07 10:40:03;;;;;;;;;;;;;;;;;;4689438;30;19942;-83
2022/05/07 10:42:30;;;;;;;;;;;;;;;;;;4707398;30;20522;-83
2022/05/07 10:44:56;;;;;;;;;;;;;;;;;;4705066;30;19934;-83
2022/05/07 10:47:22;;;;;;;;;;;;;;;;;;4683224;30;19934;-79
2022/05/07 10:49:51;;;;;;;;;;;;;;;;;;4705423;30;19926;-79
2022/05/07 10:52:17;;;;;;;;;;;;;;;;;;4688347;30;20386;-78
2022/05/07 10:54:44;;;;;;;;;;;;;;;;;;4690758;30;20461;-80
2022/05/07 10:57:11;;;;;;;;;;;;;;;;;;4698935;30;19946;-78
2022/05/07 10:59:38;;;;;;;;;;;;;;;;;;4708005;30;20012;-79
2022/05/07 11:02:05;;;;;;;;;;;;;;;;;;4676005;30;20002;-81
2022/05/07 11:04:31;;;;;;;;;;;;;;;;;;4688832;30;19931;-79
2022/05/07 11:06:57;;;;;;;;;;;;;;;;;;4672382;30;19930;-79
2022/05/07 11:09:24;;;;;;;;;;;;;;;;;;4698007;30;19934;-79
2022/05/07 11:11:52;;;;;;;;;;;;;;;;;;4685817;30;19987;-79
2022/05/07 11:14:21;;;;;;;;;;;;;;;;;;4687135;30;19931;-79
2022/05/07 11:16:49;;;;;;;;;;;;;;;;;;4679890;30;20295;-79
2022/05/07 11:19:15;;;;;;;;;;;;;;;;;;4704891;30;20351;-79
2022/05/07 11:21:43;;;;;;;;;;;;;;;;;;4709826;30;20041;-79
2022/05/07 11:24:09;;;;;;;;;;;;;;;;;;4698289;30;19931;-79
2022/05/07 11:26:35;;;;;;;;;;;;;;;;;;4715549;30;19938;-80
2022/05/07 11:29:05;;;;;;;;;;;;;;;;;;4724571;30;20210;-80
2022/05/07 11:31:31;;;;;;;;;;;;;;;;;;4709179;29;19978;-81
2022/05/07 11:34:15;;;;;;;;;;;;;;;;;;;;;
2022/05/07 11:36:47;;;;;;;;;;;;;;;;;;4720702;30;19941;-80
2022/05/07 11:39:14;;;;;;;;;;;;;;;;;;4731984;30;20016;-83
2022/05/07 11:41:40;;;;;;;;;;;;;;;;;;4725548;30;19930;-80
2022/05/07 11:46:54;;;;;;;;;;;;;;;;;;4728573;30;19934;-79
2022/05/07 11:49:26;;;;;;;;;;;;;;;;;;4726663;30;19955;-79
2022/05/07 11:51:53;;;;;;;;;;;;;;;;;;4715325;30;19934;-79
2022/05/07 11:54:21;;;;;;;;;;;;;;;;;;4721419;30;19930;-79
2022/05/07 11:56:47;;;;;;;;;;;;;;;;;;4726417;30;19934;-79
2022/05/07 11:59:16;;;;;;;;;;;;;;;;;;4721877;30;19934;-80
2022/05/07 12:01:42;;;;;;;;;;;;;;;;;;4711980;30;19938;-80
2022/05/07 12:04:11;;;;;;;;;;;;;;;;;;4722427;30;19938;-79
2022/05/07 12:06:38;;;;;;;;;;;;;;;;;;4728386;30;20451;-80
2022/05/07 12:09:04;;;;;;;;;;;;;;;;;;4713044;30;20029;-78
2022/05/07 12:11:30;;;;;;;;;;;;;;;;;;4721381;30;19998;-78
2022/05/07 12:13:57;;;;;;;;;;;;;;;;;;4733897;30;19934;-78
2022/05/07 12:19:08;;;;;;;;;;;;;;;;;;4707795;30;19930;-79
2022/05/07 12:30:14;;;;;;;;;;;;;;;;;;4724360;30;20009;-78
2022/05/07 12:32:43;;;;;;;;;;;;;;;;;;4725112;30;19934;-78
2022/05/07 12:35:09;;;;;;;;;;;;;;;;;;4721461;30;19937;-78
2022/05/07 12:37:37;;;;;;;;;;;;;;;;;;4712425;30;19931;-78
2022/05/07 12:40:04;;;;;;;;;;;;;;;;;;4723678;30;20067;-78
2022/05/07 12:42:31;;;;;;;;;;;;;;;;;;4725894;30;20382;-78
2022/05/07 12:44:58;;;;;;;;;;;;;;;;;;4698178;30;19933;-78
2022/05/07 12:47:25;;;;;;;;;;;;;;;;;;4704579;30;19934;-78
2022/05/07 12:49:51;;;;;;;;;;;;;;;;;;4695168;30;19926;-78
2022/05/07 12:52:20;;;;;;;;;;;;;;;;;;4733578;30;19937;-78
2022/05/07 12:54:47;;;;;;;;;;;;;;;;;;4710382;30;20025;-78
2022/05/07 12:57:15;;;;;;;;;;;;;;;;;;4704029;30;20378;-79
2022/05/07 12:59:41;;;;;;;;;;;;;;;;;;4722200;30;19930;-79
2022/05/07 13:02:08;;;;;;;;;;;;;;;;;;4708827;30;20435;-78
2022/05/07 13:04:38;;;;;;;;;;;;;;;;;;4728992;30;19991;-77
2022/05/07 13:07:06;;;;;;;;;;;;;;;;;;4724404;30;20025;-78
2022/05/07 13:09:33;;;;;;;;;;;;;;;;;;4715229;30;20024;-79
2022/05/07 13:12:02;;;;;;;;;;;;;;;;;;4733300;29;19930;-79
2022/05/07 13:14:35;;;;;;;;;;;;;;;;;;4716231;30;19937;-79
2022/05/07 13:17:01;;;;;;;;;;;;;;;;;;4711184;30;19981;-78
2022/05/07 13:19:32;;;;;;;;;;;;;;;;;;4726488;30;19988;-79
2022/05/07 13:21:58;;;;;;;;;;;;;;;;;;4710666;30;19991;-78
2022/05/07 13:24:24;;;;;;;;;;;;;;;;;;4692557;30;19942;-79
2022/05/07 13:27:00;;;;;;;;;;;;;;;;;;4728642;30;20464;-78
2022/05/07 13:29:28;;;;;;;;;;;;;;;;;;4717229;30;21136;-78
2022/05/07 13:31:56;;;;;;;;;;;;;;;;;;4718001;29;19934;-78
2022/05/07 13:34:38;;;;;;;;;;;;;;;;;;4729800;30;20301;-78
2022/05/07 13:37:03;;;;;;;;;;;;;;;;;;4711331;30;19930;-79
2022/05/07 13:39:31;;;;;;;;;;;;;;;;;;4694532;30;19941;-79
2022/05/07 13:42:00;;;;;;;;;;;;;;;;;;4699739;30;19930;-79
2022/05/07 13:44:28;;;;;;;;;;;;;;;;;;4697618;30;19938;-79
2022/05/07 13:46:54;;;;;;;;;;;;;;;;;;4716442;30;20587;-78
2022/05/07 13:49:20;;;;;;;;;;;;;;;;;;4710632;30;19941;-79
2022/05/07 13:51:47;;;;;;;;;;;;;;;;;;4712350;30;22570;-78
2022/05/07 13:54:13;;;;;;;;;;;;;;;;;;4695042;30;19934;-79
2022/05/07 13:56:39;;;;;;;;;;;;;;;;;;4720333;30;20606;-79
2022/05/07 13:59:05;;;;;;;;;;;;;;;;;;4709792;30;19950;-79
2022/05/07 14:01:32;;;;;;;;;;;;;;;;;;4704325;30;19929;-79
2022/05/07 14:03:58;;;;;;;;;;;;;;;;;;4725988;30;19934;-79
2022/05/07 14:06:25;;;;;;;;;;;;;;;;;;4719600;30;19941;-79
2022/05/07 14:09:07;;;;;;;;;;;;;;;;;;4720713;30;19941;-79
2022/05/07 14:11:35;;;;;;;;;;;;;;;;;;4721822;30;20003;-78
2022/05/07 14:14:01;;;;;;;;;;;;;;;;;;4709235;30;20022;-78
2022/05/07 14:16:29;;;;;;;;;;;;;;;;;;4708267;30;19937;-78
2022/05/07 14:18:55;;;;;;;;;;;;;;;;;;4711207;30;19941;-78
2022/05/07 14:21:28;;;;;;;;;;;;;;;;;;4725096;30;19940;-78
2022/05/07 14:23:55;;;;;;;;;;;;;;;;;;4727675;30;19945;-78
2022/05/07 14:26:41;;;;;;;;;;;;;;;;;;4674272;30;19931;-78
2022/05/07 14:29:07;;;;;;;;;;;;;;;;;;4672254;30;19993;-78
2022/05/07 14:31:34;;;;;;;;;;;;;;;;;;4675300;30;20224;-78
2022/05/07 14:34:00;;;;;;;;;;;;;;;;;;4664833;30;19973;-78
2022/05/07 14:36:37;;;;;;;;;;;;;;;;;;4690452;30;19981;-78
2022/05/07 14:39:03;;;;;;;;;;;;;;;;;;4671474;30;19946;-78
2022/05/07 14:41:31;;;;;;;;;;;;;;;;;;4677196;30;19935;-78
2022/05/07 14:43:58;;;;;;;;;;;;;;;;;;4690505;30;19946;-78
2022/05/07 14:46:24;;;;;;;;;;;;;;;;;;4670892;30;19941;-78
2022/05/07 14:48:50;;;;;;;;;;;;;;;;;;4674352;30;19935;-78
2022/05/07 14:51:17;;;;;;;;;;;;;;;;;;4672073;30;19931;-78
2022/05/07 14:53:43;;;;;;;;;;;;;;;;;;4672528;30;19935;-78
2022/05/07 14:56:09;;;;;;;;;;;;;;;;;;4655537;30;19935;-79
2022/05/07 14:58:35;;;;;;;;;;;;;;;;;;4671947;30;19931;-78
2022/05/07 15:01:07;;;;;;;;;;;;;;;;;;4669788;30;19963;-79
2022/05/07 15:03:35;;;;;;;;;;;;;;;;;;4676193;30;19935;-78
2022/05/07 15:06:01;;;;;;;;;;;;;;;;;;4675383;30;19926;-78
2022/05/07 15:11:22;;;;;;;;;;;;;;;;;;4714268;30;19941;-78
2022/05/07 15:13:49;;;;;;;;;;;;;;;;;;4725370;30;19931;-78
2022/05/07 15:16:18;;;;;;;;;;;;;;;;;;4722836;29;19965;-78
2022/05/07 15:18:45;;;;;;;;;;;;;;;;;;4708708;30;20361;-78
2022/05/07 15:21:11;;;;;;;;;;;;;;;;;;4707420;30;20393;-78
2022/05/07 15:23:38;;;;;;;;;;;;;;;;;;4712863;30;19934;-78
2022/05/07 15:26:04;;;;;;;;;;;;;;;;;;4712252;30;19962;-78
2022/05/07 15:28:31;;;;;;;;;;;;;;;;;;4714046;30;20057;-78
2022/05/07 15:31:00;;;;;;;;;;;;;;;;;;4721106;30;19944;-78
2022/05/07 15:39:06;;;;;;;;;;;;;;;;;;4716343;30;20402;-78
2022/05/07 15:41:33;;;;;;;;;;;;;;;;;;4696231;30;19934;-78
2022/05/07 15:44:01;;;;;;;;;;;;;;;;;;4692441;30;19940;-78
2022/05/07 15:46:28;;;;;;;;;;;;;;;;;;4716013;30;19929;-78
2022/05/07 15:48:54;;;;;;;;;;;;;;;;;;4692136;30;19934;-78
2022/05/07 15:51:20;;;;;;;;;;;;;;;;;;4689092;30;19934;-78
2022/05/07 15:53:46;;;;;;;;;;;;;;;;;;4728946;30;19930;-78
2022/05/07 15:56:20;;;;;;;;;;;;;;;;;;4708297;29;19941;-78
2022/05/07 15:58:47;;;;;;;;;;;;;;;;;;4725440;30;19985;-78
2022/05/07 16:01:13;;;;;;;;;;;;;;;;;;4704566;30;20004;-78
2022/05/07 16:03:39;;;;;;;;;;;;;;;;;;4712909;30;19938;-78
2022/05/07 16:06:05;;;;;;;;;;;;;;;;;;4736373;30;19935;-78
2022/05/07 16:08:31;;;;;;;;;;;;;;;;;;4697552;30;20812;-78
2022/05/07 16:10:59;;;;;;;;;;;;;;;;;;4715407;30;19962;-77
2022/05/07 16:13:26;;;;;;;;;;;;;;;;;;4707747;30;19938;-77
2022/05/07 16:15:54;;;;;;;;;;;;;;;;;;4726721;30;20356;-77
2022/05/07 16:18:21;;;;;;;;;;;;;;;;;;4698202;30;19934;-77
2022/05/07 16:20:47;;;;;;;;;;;;;;;;;;4729609;30;19930;-78
2022/05/07 16:26:05;;;;;;;;;;;;;;;;;;4725925;30;20452;-77
2022/05/07 16:28:31;;;;;;;;;;;;;;;;;;4710998;30;19937;-78
2022/05/07 16:30:57;;;;;;;;;;;;;;;;;;4721773;30;19969;-77
2022/05/07 16:33:23;;;;;;;;;;;;;;;;;;4715561;30;21914;-77
2022/05/07 16:35:49;;;;;;;;;;;;;;;;;;4726227;30;20874;-77
2022/05/07 16:38:15;;;;;;;;;;;;;;;;;;4713819;30;19926;-77
2022/05/07 16:40:41;;;;;;;;;;;;;;;;;;4726170;30;19952;-78
2022/05/07 16:43:07;;;;;;;;;;;;;;;;;;4724427;30;20050;-78
2022/05/07 16:45:33;;;;;;;;;;;;;;;;;;4721031;30;20511;-78
2022/05/07 16:47:59;;;;;;;;;;;;;;;;;;4691234;30;19930;-78
2022/05/07 16:50:25;;;;;;;;;;;;;;;;;;4691023;30;19931;-79
2022/05/07 16:52:51;;;;;;;;;;;;;;;;;;4717131;30;19931;-78
2022/05/07 16:55:19;;;;;;;;;;;;;;;;;;4732323;30;19933;-78
2022/05/07 16:57:46;;;;;;;;;;;;;;;;;;4699437;30;20017;-78
2022/05/07 17:00:13;;;;;;;;;;;;;;;;;;4714442;30;19938;-78
2022/05/07 17:02:41;;;;;;;;;;;;;;;;;;4695626;30;19938;-79
2022/05/07 17:05:15;;;;;;;;;;;;;;;;;;4722218;30;19930;-78
2022/05/07 17:07:41;;;;;;;;;;;;;;;;;;4710860;30;19969;-78
2022/05/07 17:10:07;;;;;;;;;;;;;;;;;;4717462;30;19942;-78
2022/05/07 17:12:33;;;;;;;;;;;;;;;;;;4725340;30;19934;-78
2022/05/07 17:14:59;;;;;;;;;;;;;;;;;;4704976;30;19973;-78
2022/05/07 17:17:25;;;;;;;;;;;;;;;;;;4720794;30;19930;-78
2022/05/07 17:19:53;;;;;;;;;;;;;;;;;;4714293;30;19966;-78
2022/05/07 17:22:20;;;;;;;;;;;;;;;;;;4705732;30;19934;-78
2022/05/07 17:24:48;;;;;;;;;;;;;;;;;;4714644;30;20411;-78
2022/05/07 17:27:15;;;;;;;;;;;;;;;;;;4690526;30;19930;-78
2022/05/07 17:29:42;;;;;;;;;;;;;;;;;;4697373;30;19933;-79
2022/05/07 17:32:10;;;;;;;;;;;;;;;;;;4708081;30;19987;-78
2022/05/07 17:34:37;;;;;;;;;;;;;;;;;;4700565;29;19969;-79
2022/05/07 17:37:03;;;;;;;;;;;;;;;;;;4710852;30;19930;-80